Time,TemperatureF,DewpointF,PressureIn,WindDirection,WindDirectionDegrees,WindSpeedMPH,WindSpeedGustMPH,Humidity,HourlyPrecipIn,Conditions,Clouds,dailyrainin,SoftwareType,DateUTC
2013-02-10 00:00:00,24.0,21.2,29.90,West,270,4.0,8.0,89,0.00,,,0.00,Weather View 32 v70,2013-02-10 07:00:00,
2013-02-10 00:07:00,24.0,21.2,29.90,West,270,4.0,8.0,89,0.00,,,0.00,Weather View 32 v70,2013-02-10 07:07:00,
2013-02-10 00:12:00,25.0,22.2,29.91,West,270,4.0,8.0,89,0.00,,,0.00,Weather View 32 v70,2013-02-10 07:12:00,
2013-02-10 00:17:00,25.0,22.2,29.91,SW,225,4.0,8.0,89,0.00,,,0.00,Weather View 32 v70,2013-02-10 07:17:00,
2013-02-10 00:22:00,25.0,22.2,29.91,SW,225,3.0,8.0,89,0.00,,,0.00,Weather View 32 v70,2013-02-10 07:22:00,
2013-02-10 00:27:00,25.0,22.2,29.91,West,270,3.0,8.0,89,0.00,,,0.00,Weather View 32 v70,2013-02-10 07:27:00,
2013-02-10 00:32:00,25.0,22.0,29.91,West,270,4.0,8.0,88,0.00,,,0.00,Weather View 32 v70,2013-02-10 07:32:00,
2013-02-10 00:37:00,26.0,22.7,29.91,West,270,3.0,8.0,87,0.00,,,0.00,Weather View 32 v70,2013-02-10 07:37:00,
2013-02-10 00:42:00,26.0,22.4,29.91,WSW,247,5.0,8.0,86,0.00,,,0.00,Weather View 32 v70,2013-02-10 07:42:00,
2013-02-10 00:47:00,26.0,22.4,29.91,SW,225,4.0,8.0,86,0.00,,,0.00,Weather View 32 v70,2013-02-10 07:47:00,
2013-02-10 00:52:00,26.0,22.1,29.92,SW,225,5.0,8.0,85,0.00,,,0.00,Weather View 32 v70,2013-02-10 07:52:00,
2013-02-10 00:57:00,26.0,21.5,29.92,SW,225,7.0,9.0,83,0.00,,,0.00,Weather View 32 v70,2013-02-10 07:57:00,
2013-02-10 01:02:00,26.0,21.8,29.90,SW,225,5.0,9.0,84,0.00,,,0.00,Weather View 32 v70,2013-02-10 08:02:00,
2013-02-10 01:07:00,26.0,21.8,29.90,SW,225,3.0,9.0,84,0.00,,,0.00,Weather View 32 v70,2013-02-10 08:07:00,
2013-02-10 01:12:00,26.0,21.5,29.90,SW,225,5.0,9.0,83,0.00,,,0.00,Weather View 32 v70,2013-02-10 08:12:00,
2013-02-10 01:17:00,26.0,21.5,29.90,SW,225,4.0,9.0,83,0.00,,,0.00,Weather View 32 v70,2013-02-10 08:17:00,
2013-02-10 01:22:00,26.0,21.8,29.90,South,180,3.0,9.0,84,0.00,,,0.00,Weather View 32 v70,2013-02-10 08:22:00,
2013-02-10 01:27:00,26.0,21.5,29.90,South,180,8.0,9.0,83,0.00,,,0.00,Weather View 32 v70,2013-02-10 08:27:00,
2013-02-10 01:32:00,26.0,21.5,29.90,WSW,247,4.0,9.0,83,0.00,,,0.00,Weather View 32 v70,2013-02-10 08:32:00,
2013-02-10 01:37:00,26.0,21.5,29.90,SW,225,4.0,9.0,83,0.00,,,0.00,Weather View 32 v70,2013-02-10 08:37:00,
2013-02-10 01:42:00,26.0,21.5,29.90,SW,225,3.0,9.0,83,0.00,,,0.00,Weather View 32 v70,2013-02-10 08:42:00,
2013-02-10 01:47:00,26.0,21.5,29.90,WSW,247,5.0,10.0,83,0.00,,,0.00,Weather View 32 v70,2013-02-10 08:47:00,
2013-02-10 01:52:00,26.0,21.5,29.90,West,270,9.0,13.0,83,0.00,,,0.00,Weather View 32 v70,2013-02-10 08:52:00,
2013-02-10 01:57:00,26.0,22.4,29.90,West,270,6.0,13.0,86,0.00,,,0.00,Weather View 32 v70,2013-02-10 08:57:00,
2013-02-10 02:03:00,26.0,22.7,29.90,West,270,5.0,13.0,87,0.00,,,0.00,Weather View 32 v70,2013-02-10 09:03:00,
2013-02-10 02:08:00,26.0,23.5,29.91,WNW,292,9.0,13.0,90,0.00,,,0.00,Weather View 32 v70,2013-02-10 09:08:00,
2013-02-10 02:13:00,26.0,23.7,29.91,West,270,6.0,13.0,91,0.00,,,0.00,Weather View 32 v70,2013-02-10 09:13:00,
2013-02-10 02:18:00,26.0,23.7,29.91,West,270,3.0,13.0,91,0.00,,,0.00,Weather View 32 v70,2013-02-10 09:18:00,
2013-02-10 02:23:00,25.0,23.3,29.91,West,270,3.0,13.0,93,0.00,,,0.00,Weather View 32 v70,2013-02-10 09:23:00,
2013-02-10 02:28:00,25.0,23.3,29.91,WSW,247,4.0,13.0,93,0.00,,,0.00,Weather View 32 v70,2013-02-10 09:28:00,
2013-02-10 02:33:00,25.0,23.5,29.91,NW,315,3.0,13.0,94,0.00,,,0.00,Weather View 32 v70,2013-02-10 09:33:00,
2013-02-10 02:38:00,25.0,23.5,29.91,West,270,2.0,13.0,94,0.00,,,0.00,Weather View 32 v70,2013-02-10 09:38:00,
2013-02-10 02:43:00,25.0,23.8,29.91,NW,315,5.0,13.0,95,0.00,,,0.00,Weather View 32 v70,2013-02-10 09:43:00,
2013-02-10 02:48:00,25.0,24.0,29.91,NW,315,5.0,13.0,96,0.00,,,0.00,Weather View 32 v70,2013-02-10 09:48:00,
2013-02-10 02:53:00,25.0,24.0,29.91,NW,315,3.0,13.0,96,0.00,,,0.00,Weather View 32 v70,2013-02-10 09:53:00,
2013-02-10 02:58:00,25.0,24.0,29.91,NW,315,3.0,12.0,96,0.00,,,0.00,Weather View 32 v70,2013-02-10 09:58:00,
2013-02-10 03:03:00,25.0,24.3,29.91,NW,315,0.0,9.0,97,0.00,,,0.00,Weather View 32 v70,2013-02-10 10:03:00,
2013-02-10 03:08:00,25.0,24.3,29.91,NW,315,6.0,9.0,97,0.00,,,0.00,Weather View 32 v70,2013-02-10 10:08:00,
2013-02-10 03:13:00,25.0,24.5,29.91,SW,225,6.0,9.0,98,0.00,,,0.00,Weather View 32 v70,2013-02-10 10:13:00,
2013-02-10 03:18:00,25.0,24.5,29.91,West,270,5.0,8.0,98,0.00,,,0.00,Weather View 32 v70,2013-02-10 10:18:00,
2013-02-10 03:23:00,25.0,24.5,29.90,West,270,2.0,8.0,98,0.00,,,0.00,Weather View 32 v70,2013-02-10 10:23:00,
2013-02-10 03:28:00,25.0,24.5,29.90,WSW,247,3.0,8.0,98,0.00,,,0.00,Weather View 32 v70,2013-02-10 10:28:00,
2013-02-10 03:33:00,25.0,24.5,29.90,West,270,3.0,11.0,98,0.00,,,0.00,Weather View 32 v70,2013-02-10 10:33:00,
2013-02-10 03:38:00,25.0,24.5,29.90,NW,315,7.0,11.0,98,0.00,,,0.00,Weather View 32 v70,2013-02-10 10:38:00,
2013-02-10 03:43:00,25.0,24.5,29.90,West,270,4.0,11.0,98,0.00,,,0.00,Weather View 32 v70,2013-02-10 10:43:00,
2013-02-10 03:48:00,25.0,24.5,29.90,West,270,4.0,11.0,98,0.00,,,0.00,Weather View 32 v70,2013-02-10 10:48:00,
2013-02-10 03:53:00,25.0,24.3,29.89,West,270,6.0,11.0,97,0.00,,,0.00,Weather View 32 v70,2013-02-10 10:53:00,
2013-02-10 03:58:00,25.0,24.0,29.89,West,270,7.0,11.0,96,0.00,,,0.00,Weather View 32 v70,2013-02-10 10:58:00,
2013-02-10 04:03:00,25.0,24.0,29.89,NW,315,9.0,11.0,96,0.00,,,0.00,Weather View 32 v70,2013-02-10 11:03:00,
2013-02-10 04:08:00,25.0,23.3,29.89,West,270,5.0,12.0,93,0.00,,,0.00,Weather View 32 v70,2013-02-10 11:08:00,
2013-02-10 04:13:00,26.0,23.7,29.89,West,270,5.0,12.0,91,0.00,,,0.00,Weather View 32 v70,2013-02-10 11:13:00,
2013-02-10 04:18:00,26.0,23.5,29.89,West,270,4.0,12.0,90,0.00,,,0.00,Weather View 32 v70,2013-02-10 11:18:00,
2013-02-10 04:23:00,26.0,23.2,29.89,SW,225,5.0,12.0,89,0.00,,,0.00,Weather View 32 v70,2013-02-10 11:23:00,
2013-02-10 04:28:00,26.0,23.2,29.89,WSW,247,4.0,12.0,89,0.00,,,0.00,Weather View 32 v70,2013-02-10 11:28:00,
2013-02-10 04:33:00,26.0,22.9,29.90,NW,315,4.0,12.0,88,0.00,,,0.00,Weather View 32 v70,2013-02-10 11:33:00,
2013-02-10 04:38:00,26.0,22.9,29.90,WSW,247,3.0,12.0,88,0.00,,,0.00,Weather View 32 v70,2013-02-10 11:38:00,
2013-02-10 04:43:00,26.0,22.9,29.90,WSW,247,6.0,12.0,88,0.00,,,0.00,Weather View 32 v70,2013-02-10 11:43:00,
2013-02-10 04:48:00,26.0,22.9,29.90,West,270,4.0,12.0,88,0.00,,,0.00,Weather View 32 v70,2013-02-10 11:48:00,
2013-02-10 04:53:00,26.0,22.7,29.90,SW,225,5.0,12.0,87,0.00,,,0.00,Weather View 32 v70,2013-02-10 11:53:00,
2013-02-10 04:58:00,26.0,22.7,29.90,WSW,247,3.0,12.0,87,0.00,,,0.00,Weather View 32 v70,2013-02-10 11:58:00,
2013-02-10 05:03:00,26.0,22.7,29.90,SW,225,2.0,12.0,87,0.00,,,0.00,Weather View 32 v70,2013-02-10 12:03:00,
2013-02-10 05:08:00,26.0,22.7,29.90,SW,225,4.0,12.0,87,0.00,,,0.00,Weather View 32 v70,2013-02-10 12:08:00,
2013-02-10 05:13:00,26.0,22.7,29.90,WSW,247,4.0,12.0,87,0.00,,,0.00,Weather View 32 v70,2013-02-10 12:13:00,
2013-02-10 05:18:00,26.0,22.7,29.90,WSW,247,2.0,12.0,87,0.00,,,0.00,Weather View 32 v70,2013-02-10 12:18:00,
2013-02-10 05:23:00,26.0,22.7,29.90,West,270,6.0,12.0,87,0.00,,,0.00,Weather View 32 v70,2013-02-10 12:23:00,
2013-02-10 05:28:00,26.0,22.7,29.90,West,270,5.0,12.0,87,0.00,,,0.00,Weather View 32 v70,2013-02-10 12:28:00,
2013-02-10 05:33:00,26.0,22.7,29.91,West,270,4.0,12.0,87,0.00,,,0.00,Weather View 32 v70,2013-02-10 12:33:00,
2013-02-10 05:38:00,26.0,22.7,29.91,West,270,2.0,10.0,87,0.00,,,0.00,Weather View 32 v70,2013-02-10 12:38:00,
2013-02-10 05:43:00,26.0,22.1,29.91,WSW,247,8.0,10.0,85,0.00,,,0.00,Weather View 32 v70,2013-02-10 12:43:00,
2013-02-10 05:48:00,26.0,22.1,29.91,West,270,5.0,10.0,85,0.00,,,0.00,Weather View 32 v70,2013-02-10 12:48:00,
2013-02-10 05:53:00,26.0,22.1,29.91,WSW,247,7.0,11.0,85,0.00,,,0.00,Weather View 32 v70,2013-02-10 12:53:00,
2013-02-10 05:58:00,26.0,22.1,29.91,West,270,3.0,11.0,85,0.00,,,0.00,Weather View 32 v70,2013-02-10 12:58:00,
2013-02-10 06:03:00,26.0,22.1,29.91,WNW,292,7.0,12.0,85,0.00,,,0.00,Weather View 32 v70,2013-02-10 13:03:00,
2013-02-10 06:08:00,26.0,22.7,29.91,West,270,5.0,13.0,87,0.00,,,0.00,Weather View 32 v70,2013-02-10 13:08:00,
2013-02-10 06:13:00,26.0,22.9,29.91,West,270,4.0,13.0,88,0.00,,,0.00,Weather View 32 v70,2013-02-10 13:13:00,
2013-02-10 06:18:00,26.0,22.9,29.91,WSW,247,4.0,13.0,88,0.00,,,0.00,Weather View 32 v70,2013-02-10 13:18:00,
2013-02-10 06:23:00,26.0,23.2,29.91,West,270,5.0,13.0,89,0.00,,,0.00,Weather View 32 v70,2013-02-10 13:23:00,
2013-02-10 06:28:00,26.0,23.5,29.91,WSW,247,5.0,13.0,90,0.00,,,0.00,Weather View 32 v70,2013-02-10 13:28:00,
2013-02-10 06:33:00,25.0,22.7,29.91,WSW,247,2.0,13.0,91,0.00,,,0.00,Weather View 32 v70,2013-02-10 13:33:00,
2013-02-10 06:38:00,25.0,22.7,29.91,West,270,3.0,13.0,91,0.00,,,0.00,Weather View 32 v70,2013-02-10 13:38:00,
2013-02-10 06:43:00,25.0,22.7,29.92,West,270,3.0,13.0,91,0.00,,,0.00,Weather View 32 v70,2013-02-10 13:43:00,
2013-02-10 06:48:00,25.0,22.7,29.92,WSW,247,4.0,13.0,91,0.00,,,0.00,Weather View 32 v70,2013-02-10 13:48:00,
2013-02-10 06:53:00,25.0,23.0,29.92,WSW,247,4.0,13.0,92,0.00,,,0.00,Weather View 32 v70,2013-02-10 13:53:00,
2013-02-10 06:58:00,25.0,23.0,29.92,SW,225,2.0,13.0,92,0.00,,,0.00,Weather View 32 v70,2013-02-10 13:58:00,
2013-02-10 07:03:00,25.0,23.0,29.92,SW,225,3.0,13.0,92,0.00,,,0.00,Weather View 32 v70,2013-02-10 14:03:00,
2013-02-10 07:08:00,25.0,23.0,29.92,SW,225,2.0,13.0,92,0.00,,,0.00,Weather View 32 v70,2013-02-10 14:08:00,
2013-02-10 07:13:00,25.0,23.3,29.92,SW,225,8.0,9.0,93,0.00,,,0.00,Weather View 32 v70,2013-02-10 14:13:00,
2013-02-10 07:19:00,25.0,23.3,29.92,SSW,202,4.0,11.0,93,0.00,,,0.00,Weather View 32 v70,2013-02-10 14:19:00,
2013-02-10 07:25:00,25.0,23.5,29.93,SW,225,9.0,12.0,94,0.00,,,0.00,Weather View 32 v70,2013-02-10 14:25:00,
2013-02-10 07:30:00,25.0,23.5,29.93,SW,225,11.0,13.0,94,0.00,,,0.00,Weather View 32 v70,2013-02-10 14:30:00,
2013-02-10 07:35:00,25.0,24.0,29.93,SW,225,7.0,13.0,96,0.00,,,0.00,Weather View 32 v70,2013-02-10 14:35:00,
2013-02-10 07:41:00,25.0,24.3,29.94,SW,225,6.0,13.0,97,0.00,,,0.00,Weather View 32 v70,2013-02-10 14:41:00,
2013-02-10 07:46:00,25.0,24.5,29.94,WSW,247,7.0,13.0,98,0.00,,,0.00,Weather View 32 v70,2013-02-10 14:46:00,
2013-02-10 07:51:00,25.0,24.5,29.94,SW,225,3.0,13.0,98,0.00,,,0.00,Weather View 32 v70,2013-02-10 14:51:00,
2013-02-10 07:56:00,25.0,24.3,29.94,SSW,202,4.0,13.0,97,0.00,,,0.00,Weather View 32 v70,2013-02-10 14:56:00,
2013-02-10 08:01:00,25.0,24.0,29.94,SSW,202,4.0,13.0,96,0.00,,,0.00,Weather View 32 v70,2013-02-10 15:01:00,
2013-02-10 08:06:00,25.0,24.0,29.94,SW,225,5.0,13.0,96,0.00,,,0.00,Weather View 32 v70,2013-02-10 15:06:00,
2013-02-10 08:11:00,25.0,24.0,29.94,SW,225,4.0,13.0,96,0.00,,,0.00,Weather View 32 v70,2013-02-10 15:11:00,
2013-02-10 08:16:00,25.0,23.8,29.94,SSW,202,3.0,13.0,95,0.00,,,0.00,Weather View 32 v70,2013-02-10 15:16:00,
2013-02-10 08:21:00,25.0,23.5,29.95,SW,225,6.0,13.0,94,0.00,,,0.00,Weather View 32 v70,2013-02-10 15:21:00,
2013-02-10 08:26:00,26.0,24.3,29.95,SW,225,3.0,13.0,93,0.00,,,0.00,Weather View 32 v70,2013-02-10 15:26:00,
2013-02-10 08:31:00,26.0,24.3,29.95,WSW,247,4.0,11.0,93,0.00,,,0.00,Weather View 32 v70,2013-02-10 15:31:00,
2013-02-10 08:36:00,26.0,24.0,29.95,SW,225,5.0,10.0,92,0.00,,,0.00,Weather View 32 v70,2013-02-10 15:36:00,
2013-02-10 08:41:00,26.0,23.5,29.95,SSW,202,6.0,10.0,90,0.00,,,0.00,Weather View 32 v70,2013-02-10 15:41:00,
2013-02-10 08:46:00,27.0,24.5,29.95,WSW,247,5.0,9.0,90,0.00,,,0.00,Weather View 32 v70,2013-02-10 15:46:00,
2013-02-10 08:51:00,27.0,23.9,29.96,WSW,247,4.0,9.0,88,0.00,,,0.00,Weather View 32 v70,2013-02-10 15:51:00,
2013-02-10 08:56:00,28.0,24.9,29.96,West,270,5.0,10.0,88,0.00,,,0.00,Weather View 32 v70,2013-02-10 15:56:00,
2013-02-10 09:01:00,28.0,24.9,29.95,WSW,247,6.0,10.0,88,0.00,,,0.00,Weather View 32 v70,2013-02-10 16:01:00,
2013-02-10 09:06:00,28.0,25.2,29.95,SW,225,2.0,10.0,89,0.00,,,0.00,Weather View 32 v70,2013-02-10 16:06:00,
2013-02-10 09:11:00,28.0,25.2,29.96,WSW,247,1.0,10.0,89,0.00,,,0.00,Weather View 32 v70,2013-02-10 16:11:00,
2013-02-10 09:16:00,29.0,26.2,29.96,WSW,247,2.0,10.0,89,0.00,,,0.00,Weather View 32 v70,2013-02-10 16:16:00,
2013-02-10 09:21:00,28.0,25.4,29.96,WNW,292,6.0,10.0,90,0.00,,,0.00,Weather View 32 v70,2013-02-10 16:21:00,
2013-02-10 09:26:00,28.0,25.4,29.96,WNW,292,3.0,10.0,90,0.00,,,0.00,Weather View 32 v70,2013-02-10 16:26:00,
2013-02-10 09:31:00,28.0,25.4,29.96,West,270,7.0,10.0,90,0.00,,,0.00,Weather View 32 v70,2013-02-10 16:31:00,
2013-02-10 09:36:00,28.0,25.4,29.96,West,270,5.0,10.0,90,0.00,,,0.00,Weather View 32 v70,2013-02-10 16:36:00,
2013-02-10 09:41:00,28.0,24.9,29.96,West,270,6.0,10.0,88,0.00,,,0.00,Weather View 32 v70,2013-02-10 16:41:00,
2013-02-10 09:46:00,28.0,24.6,29.96,NW,315,4.0,10.0,87,0.00,,,0.00,Weather View 32 v70,2013-02-10 16:46:00,
2013-02-10 09:51:00,29.0,25.6,29.96,NW,315,6.0,10.0,87,0.00,,,0.00,Weather View 32 v70,2013-02-10 16:51:00,
2013-02-10 09:56:00,28.0,24.6,29.96,WNW,292,4.0,10.0,87,0.00,,,0.00,Weather View 32 v70,2013-02-10 16:56:00,
2013-02-10 10:01:00,29.0,25.3,29.96,WNW,292,5.0,9.0,86,0.01,,,0.01,Weather View 32 v70,2013-02-10 17:01:00,
2013-02-10 10:06:00,28.0,24.6,29.96,WSW,247,5.0,9.0,87,0.01,,,0.01,Weather View 32 v70,2013-02-10 17:06:00,
2013-02-10 10:11:00,29.0,25.1,29.96,West,270,4.0,9.0,85,0.01,,,0.01,Weather View 32 v70,2013-02-10 17:11:00,
2013-02-10 10:16:00,29.0,24.8,29.96,SSW,202,6.0,9.0,84,0.02,,,0.02,Weather View 32 v70,2013-02-10 17:16:00,
2013-02-10 10:21:00,29.0,24.5,29.96,SW,225,5.0,9.0,83,0.02,,,0.02,Weather View 32 v70,2013-02-10 17:21:00,
2013-02-10 10:26:00,29.0,23.9,29.96,SW,225,5.0,9.0,81,0.02,,,0.02,Weather View 32 v70,2013-02-10 17:26:00,
2013-02-10 10:31:00,29.0,23.6,29.97,SSW,202,5.0,9.0,80,0.03,,,0.03,Weather View 32 v70,2013-02-10 17:31:00,
2013-02-10 10:36:00,29.0,23.0,29.97,SW,225,7.0,9.0,78,0.03,,,0.03,Weather View 32 v70,2013-02-10 17:36:00,
2013-02-10 10:41:00,30.0,24.3,29.97,SE,135,8.0,9.0,79,0.03,,,0.03,Weather View 32 v70,2013-02-10 17:41:00,
2013-02-10 10:46:00,31.0,23.7,29.97,SW,225,4.0,10.0,74,0.03,,,0.03,Weather View 32 v70,2013-02-10 17:46:00,
2013-02-10 10:51:00,31.0,22.7,29.97,SW,225,7.0,12.0,71,0.04,,,0.04,Weather View 32 v70,2013-02-10 17:51:00,
2013-02-10 10:56:00,31.0,23.7,29.97,SW,225,5.0,12.0,74,0.04,,,0.04,Weather View 32 v70,2013-02-10 17:56:00,
2013-02-10 11:01:00,32.0,24.0,29.96,SSW,202,7.0,12.0,72,0.04,,,0.05,Weather View 32 v70,2013-02-10 18:01:00,
2013-02-10 11:06:00,31.0,24.0,29.96,SSW,202,6.0,12.0,75,0.04,,,0.05,Weather View 32 v70,2013-02-10 18:06:00,
2013-02-10 11:11:00,31.0,23.4,29.97,South,180,6.0,12.0,73,0.04,,,0.05,Weather View 32 v70,2013-02-10 18:11:00,
2013-02-10 11:16:00,31.0,23.0,29.97,SSW,202,2.0,12.0,72,0.03,,,0.05,Weather View 32 v70,2013-02-10 18:16:00,
2013-02-10 11:21:00,32.0,23.3,29.97,SSE,157,9.0,12.0,70,0.03,,,0.05,Weather View 32 v70,2013-02-10 18:21:00,
2013-02-10 11:26:00,32.0,23.7,29.97,South,180,8.0,12.0,71,0.03,,,0.05,Weather View 32 v70,2013-02-10 18:26:00,
2013-02-10 11:31:00,32.0,23.0,29.96,SE,135,9.0,12.0,69,0.02,,,0.05,Weather View 32 v70,2013-02-10 18:31:00,
2013-02-10 11:36:00,32.0,23.0,29.96,SE,135,5.0,12.0,69,0.02,,,0.05,Weather View 32 v70,2013-02-10 18:36:00,
2013-02-10 11:41:00,33.0,23.9,29.96,East,90,4.0,12.0,69,0.02,,,0.05,Weather View 32 v70,2013-02-10 18:41:00,
2013-02-10 11:46:00,32.0,22.3,29.96,SE,135,10.0,12.0,67,0.02,,,0.05,Weather View 32 v70,2013-02-10 18:46:00,
2013-02-10 11:51:00,32.0,23.0,29.95,ESE,112,7.0,12.0,69,0.01,,,0.05,Weather View 32 v70,2013-02-10 18:51:00,
2013-02-10 11:56:00,32.0,23.7,29.95,SE,135,7.0,12.0,71,0.01,,,0.05,Weather View 32 v70,2013-02-10 18:56:00,
2013-02-10 12:01:00,33.0,22.9,29.94,SE,135,8.0,12.0,66,0.00,,,0.05,Weather View 32 v70,2013-02-10 19:01:00,
2013-02-10 12:06:00,33.0,20.6,29.94,SSW,202,6.0,15.0,60,0.00,,,0.05,Weather View 32 v70,2013-02-10 19:06:00,
2013-02-10 12:11:00,34.0,19.1,29.94,SW,225,4.0,15.0,54,0.00,,,0.05,Weather View 32 v70,2013-02-10 19:11:00,
2013-02-10 12:16:00,34.0,18.2,29.94,WSW,247,4.0,15.0,52,0.00,,,0.05,Weather View 32 v70,2013-02-10 19:16:00,
2013-02-10 12:21:00,34.0,19.9,29.94,West,270,4.0,15.0,56,0.00,,,0.05,Weather View 32 v70,2013-02-10 19:21:00,
2013-02-10 12:26:00,34.0,23.5,29.94,NW,315,7.0,15.0,65,0.00,,,0.05,Weather View 32 v70,2013-02-10 19:26:00,
2013-02-10 12:31:00,34.0,24.2,29.94,NW,315,5.0,15.0,67,0.00,,,0.05,Weather View 32 v70,2013-02-10 19:31:00,
2013-02-10 12:36:00,33.0,25.0,29.94,NW,315,4.0,15.0,72,0.00,,,0.05,Weather View 32 v70,2013-02-10 19:36:00,
2013-02-10 12:41:00,33.0,24.6,29.95,West,270,6.0,15.0,71,0.00,,,0.05,Weather View 32 v70,2013-02-10 19:41:00,
2013-02-10 12:46:00,33.0,24.6,29.95,WSW,247,7.0,15.0,71,0.00,,,0.05,Weather View 32 v70,2013-02-10 19:46:00,
2013-02-10 12:51:00,32.0,24.0,29.94,West,270,7.0,15.0,72,0.00,,,0.05,Weather View 32 v70,2013-02-10 19:51:00,
2013-02-10 12:57:00,31.0,25.6,29.94,West,270,8.0,19.0,80,0.00,,,0.05,Weather View 32 v70,2013-02-10 19:57:00,
2013-02-10 13:02:00,30.0,26.0,29.94,WNW,292,10.0,19.0,85,0.00,,,0.05,Weather View 32 v70,2013-02-10 20:02:00,
2013-02-10 13:07:00,29.0,25.9,29.94,NW,315,7.0,19.0,88,0.00,,,0.05,Weather View 32 v70,2013-02-10 20:07:00,
2013-02-10 13:12:00,29.0,25.9,29.95,SW,225,6.0,19.0,88,0.00,,,0.05,Weather View 32 v70,2013-02-10 20:12:00,
2013-02-10 13:17:00,29.0,24.5,29.95,SSW,202,8.0,19.0,83,0.00,,,0.05,Weather View 32 v70,2013-02-10 20:17:00,
2013-02-10 13:22:00,30.0,23.4,29.94,SW,225,6.0,19.0,76,0.00,,,0.05,Weather View 32 v70,2013-02-10 20:22:00,
2013-02-10 13:27:00,30.0,23.7,29.94,South,180,8.0,19.0,77,0.00,,,0.05,Weather View 32 v70,2013-02-10 20:27:00,
2013-02-10 13:32:00,31.0,24.3,29.94,SSE,157,7.0,19.0,76,0.01,,,0.06,Weather View 32 v70,2013-02-10 20:32:00,
2013-02-10 13:37:00,31.0,22.0,29.94,SW,225,4.0,19.0,69,0.01,,,0.06,Weather View 32 v70,2013-02-10 20:37:00,
2013-02-10 13:42:00,32.0,23.0,29.94,SSW,202,0.0,19.0,69,0.01,,,0.06,Weather View 32 v70,2013-02-10 20:42:00,
2013-02-10 13:47:00,32.0,23.0,29.94,SE,135,6.0,19.0,69,0.01,,,0.06,Weather View 32 v70,2013-02-10 20:47:00,
2013-02-10 13:52:00,32.0,23.0,29.93,NE,45,4.0,19.0,69,0.01,,,0.06,Weather View 32 v70,2013-02-10 20:52:00,
2013-02-10 13:57:00,32.0,22.3,29.93,East,90,3.0,16.0,67,0.01,,,0.06,Weather View 32 v70,2013-02-10 20:57:00,
2013-02-10 14:03:00,32.0,22.3,29.93,SSE,157,1.0,14.0,67,0.01,,,0.06,Weather View 32 v70,2013-02-10 21:03:00,
2013-02-10 14:08:00,33.0,22.1,29.93,SE,135,3.0,11.0,64,0.01,,,0.06,Weather View 32 v70,2013-02-10 21:08:00,
2013-02-10 14:13:00,33.0,22.5,29.92,South,180,1.0,11.0,65,0.01,,,0.06,Weather View 32 v70,2013-02-10 21:13:00,
2013-02-10 14:18:00,34.0,22.3,29.92,SE,135,7.0,10.0,62,0.01,,,0.06,Weather View 32 v70,2013-02-10 21:18:00,
2013-02-10 14:23:00,34.0,22.0,29.92,SE,135,7.0,10.0,61,0.01,,,0.06,Weather View 32 v70,2013-02-10 21:23:00,
2013-02-10 14:28:00,34.0,22.3,29.92,SE,135,6.0,10.0,62,0.01,,,0.06,Weather View 32 v70,2013-02-10 21:28:00,
2013-02-10 14:33:00,34.0,22.7,29.92,South,180,8.0,10.0,63,0.00,,,0.06,Weather View 32 v70,2013-02-10 21:33:00,
2013-02-10 14:38:00,33.0,22.1,29.92,SSE,157,5.0,11.0,64,0.00,,,0.06,Weather View 32 v70,2013-02-10 21:38:00,
2013-02-10 14:43:00,34.0,23.5,29.92,SSE,157,4.0,11.0,65,0.00,,,0.06,Weather View 32 v70,2013-02-10 21:43:00,
2013-02-10 14:48:00,34.0,22.7,29.92,East,90,5.0,11.0,63,0.00,,,0.06,Weather View 32 v70,2013-02-10 21:48:00,
2013-02-10 14:53:00,33.0,21.0,29.92,SSE,157,7.0,11.0,61,0.00,,,0.06,Weather View 32 v70,2013-02-10 21:53:00,
2013-02-10 14:58:00,33.0,21.4,29.92,SE,135,4.0,11.0,62,0.00,,,0.06,Weather View 32 v70,2013-02-10 21:58:00,
2013-02-10 15:03:00,33.0,21.4,29.92,SE,135,6.0,11.0,62,0.00,,,0.06,Weather View 32 v70,2013-02-10 22:03:00,
2013-02-10 15:08:00,33.0,22.1,29.92,East,90,3.0,11.0,64,0.00,,,0.06,Weather View 32 v70,2013-02-10 22:08:00,
2013-02-10 15:13:00,33.0,22.5,29.92,SE,135,4.0,11.0,65,0.00,,,0.06,Weather View 32 v70,2013-02-10 22:13:00,
2013-02-10 15:18:00,32.0,21.9,29.92,SE,135,8.0,11.0,66,0.00,,,0.06,Weather View 32 v70,2013-02-10 22:18:00,
2013-02-10 15:23:00,32.0,22.3,29.93,SE,135,6.0,11.0,67,0.00,,,0.06,Weather View 32 v70,2013-02-10 22:23:00,
2013-02-10 15:28:00,32.0,21.9,29.93,East,90,5.0,11.0,66,0.00,,,0.06,Weather View 32 v70,2013-02-10 22:28:00,
2013-02-10 15:33:00,32.0,20.4,29.92,East,90,6.0,11.0,62,0.00,,,0.06,Weather View 32 v70,2013-02-10 22:33:00,
2013-02-10 15:38:00,33.0,21.4,29.92,South,180,3.0,10.0,62,0.00,,,0.06,Weather View 32 v70,2013-02-10 22:38:00,
2013-02-10 15:43:00,33.0,21.0,29.92,SE,135,0.0,10.0,61,0.00,,,0.06,Weather View 32 v70,2013-02-10 22:43:00,
2013-02-10 15:48:00,33.0,20.2,29.92,SSW,202,2.0,10.0,59,0.00,,,0.06,Weather View 32 v70,2013-02-10 22:48:00,
2013-02-10 15:53:00,33.0,20.2,29.92,SSW,202,0.0,10.0,59,0.00,,,0.06,Weather View 32 v70,2013-02-10 22:53:00,
2013-02-10 15:58:00,33.0,20.6,29.92,SSW,202,1.0,10.0,60,0.00,,,0.06,Weather View 32 v70,2013-02-10 22:58:00,
2013-02-10 16:03:00,33.0,20.6,29.92,SSW,202,2.0,10.0,60,0.00,,,0.06,Weather View 32 v70,2013-02-10 23:03:00,
2013-02-10 16:08:00,33.0,21.0,29.93,East,90,3.0,9.0,61,0.00,,,0.06,Weather View 32 v70,2013-02-10 23:08:00,
2013-02-10 16:13:00,33.0,21.0,29.93,SE,135,5.0,9.0,61,0.00,,,0.06,Weather View 32 v70,2013-02-10 23:13:00,
2013-02-10 16:18:00,33.0,21.4,29.93,SE,135,0.0,9.0,62,0.00,,,0.06,Weather View 32 v70,2013-02-10 23:18:00,
2013-02-10 16:23:00,33.0,21.4,29.93,East,90,6.0,9.0,62,0.00,,,0.06,Weather View 32 v70,2013-02-10 23:23:00,
2013-02-10 16:28:00,32.0,20.8,29.93,NE,45,3.0,9.0,63,0.00,,,0.06,Weather View 32 v70,2013-02-10 23:28:00,
2013-02-10 16:33:00,32.0,21.6,29.93,NE,45,5.0,9.0,65,0.00,,,0.06,Weather View 32 v70,2013-02-10 23:33:00,
2013-02-10 16:38:00,32.0,23.0,29.93,NE,45,8.0,9.0,69,0.00,,,0.06,Weather View 32 v70,2013-02-10 23:38:00,
2013-02-10 16:43:00,32.0,22.3,29.93,East,90,5.0,9.0,67,0.00,,,0.06,Weather View 32 v70,2013-02-10 23:43:00,
2013-02-10 16:48:00,32.0,22.6,29.93,NE,45,4.0,9.0,68,0.00,,,0.06,Weather View 32 v70,2013-02-10 23:48:00,
2013-02-10 16:53:00,32.0,23.0,29.94,ENE,67,8.0,9.0,69,0.00,,,0.06,Weather View 32 v70,2013-02-10 23:53:00,
2013-02-10 16:58:00,31.0,22.4,29.94,NE,45,6.0,9.0,70,0.00,,,0.06,Weather View 32 v70,2013-02-10 23:58:00,
2013-02-10 17:03:00,31.0,23.4,29.94,NE,45,6.0,9.0,73,0.00,,,0.06,Weather View 32 v70,2013-02-11 00:03:00,
2013-02-10 17:08:00,31.0,23.4,29.94,ENE,67,7.0,9.0,73,0.00,,,0.06,Weather View 32 v70,2013-02-11 00:08:00,
2013-02-10 17:13:00,31.0,23.7,29.94,NE,45,6.0,9.0,74,0.00,,,0.06,Weather View 32 v70,2013-02-11 00:13:00,
2013-02-10 17:18:00,31.0,24.0,29.94,ENE,67,2.0,9.0,75,0.00,,,0.06,Weather View 32 v70,2013-02-11 00:18:00,
2013-02-10 17:23:00,31.0,23.7,29.94,East,90,5.0,9.0,74,0.00,,,0.06,Weather View 32 v70,2013-02-11 00:23:00,
2013-02-10 17:28:00,31.0,24.0,29.94,East,90,7.0,9.0,75,0.00,,,0.06,Weather View 32 v70,2013-02-11 00:28:00,
2013-02-10 17:33:00,31.0,24.6,29.95,SE,135,8.0,10.0,77,0.00,,,0.06,Weather View 32 v70,2013-02-11 00:33:00,
2013-02-10 17:38:00,30.0,24.9,29.95,SSW,202,7.0,11.0,81,0.00,,,0.06,Weather View 32 v70,2013-02-11 00:38:00,
2013-02-10 17:43:00,30.0,25.2,29.95,SE,135,4.0,11.0,82,0.00,,,0.06,Weather View 32 v70,2013-02-11 00:43:00,
2013-02-10 17:48:00,29.0,25.1,29.95,SE,135,4.0,11.0,85,0.00,,,0.06,Weather View 32 v70,2013-02-11 00:48:00,
2013-02-10 17:53:00,29.0,25.6,29.95,ESE,112,5.0,11.0,87,0.00,,,0.06,Weather View 32 v70,2013-02-11 00:53:00,
2013-02-10 17:58:00,76.0,66.7,29.95,East,90,3.0,87.0,73,0.00,,,0.06,Weather View 32 v70,2013-02-11 00:58:00,
2013-02-10 18:03:00,29.0,26.2,29.95,East,90,3.0,87.0,89,0.00,,,0.06,Weather View 32 v70,2013-02-11 01:03:00,
2013-02-10 18:08:00,28.0,26.5,29.96,SE,135,4.0,87.0,94,0.00,,,0.06,Weather View 32 v70,2013-02-11 01:08:00,
2013-02-10 18:13:00,28.0,27.0,29.96,SE,135,3.0,87.0,96,0.00,,,0.06,Weather View 32 v70,2013-02-11 01:13:00,
2013-02-10 18:18:00,28.0,27.3,29.96,East,90,3.0,87.0,97,0.00,,,0.06,Weather View 32 v70,2013-02-11 01:18:00,
2013-02-10 18:23:00,28.0,27.3,29.96,East,90,3.0,87.0,97,0.00,,,0.06,Weather View 32 v70,2013-02-11 01:23:00,
2013-02-10 18:28:00,28.0,27.0,29.96,East,90,2.0,87.0,96,0.00,,,0.06,Weather View 32 v70,2013-02-11 01:28:00,
2013-02-10 18:33:00,27.0,26.3,29.96,East,90,1.0,11.0,97,0.00,,,0.06,Weather View 32 v70,2013-02-11 01:33:00,
2013-02-10 18:38:00,27.0,26.5,29.96,NNE,22,6.0,9.0,98,0.00,,,0.06,Weather View 32 v70,2013-02-11 01:38:00,
2013-02-10 18:44:00,27.0,26.8,29.96,NNE,22,8.0,8.0,99,0.00,,,0.06,Weather View 32 v70,2013-02-11 01:44:00,
2013-02-10 18:49:00,27.0,26.5,29.96,ESE,112,3.0,8.0,98,0.00,,,0.06,Weather View 32 v70,2013-02-11 01:49:00,
2013-02-10 18:54:00,27.0,26.8,29.96,East,90,6.0,8.0,99,0.00,,,0.06,Weather View 32 v70,2013-02-11 01:54:00,
2013-02-10 18:59:00,27.0,26.5,29.96,SW,225,0.0,8.0,98,0.00,,,0.06,Weather View 32 v70,2013-02-11 01:59:00,
2013-02-10 19:04:00,27.0,26.5,29.97,ESE,112,0.0,8.0,98,0.00,,,0.06,Weather View 32 v70,2013-02-11 02:04:00,
2013-02-10 19:09:00,27.0,26.5,29.97,ESE,112,3.0,8.0,98,0.00,,,0.06,Weather View 32 v70,2013-02-11 02:09:00,
2013-02-10 19:14:00,27.0,26.5,29.97,ESE,112,4.0,8.0,98,0.00,,,0.06,Weather View 32 v70,2013-02-11 02:14:00,
2013-02-10 19:19:00,27.0,26.5,29.97,ESE,112,4.0,8.0,98,0.00,,,0.06,Weather View 32 v70,2013-02-11 02:19:00,
2013-02-10 19:24:00,27.0,27.0,29.96,NE,45,5.0,8.0,100,0.00,,,0.06,Weather View 32 v70,2013-02-11 02:24:00,
2013-02-10 19:29:00,27.0,27.0,29.96,NE,45,0.0,8.0,100,0.00,,,0.06,Weather View 32 v70,2013-02-11 02:29:00,
2013-02-10 19:34:00,26.0,26.0,29.98,NE,45,4.0,8.0,100,0.00,,,0.06,Weather View 32 v70,2013-02-11 02:34:00,
2013-02-10 19:39:00,26.0,26.0,29.98,ENE,67,4.0,8.0,100,0.00,,,0.06,Weather View 32 v70,2013-02-11 02:39:00,
2013-02-10 19:44:00,26.0,26.0,29.97,ENE,67,3.0,8.0,100,0.00,,,0.06,Weather View 32 v70,2013-02-11 02:44:00,
2013-02-10 19:49:00,26.0,26.0,29.97,ENE,67,4.0,8.0,100,0.00,,,0.06,Weather View 32 v70,2013-02-11 02:49:00,
2013-02-10 19:54:00,26.0,26.0,29.97,East,90,5.0,8.0,100,0.00,,,0.06,Weather View 32 v70,2013-02-11 02:54:00,
2013-02-10 19:59:00,26.0,26.0,29.97,East,90,4.0,7.0,100,0.00,,,0.06,Weather View 32 v70,2013-02-11 02:59:00,
2013-02-10 20:04:00,26.0,26.0,29.97,East,90,3.0,7.0,100,0.00,,,0.06,Weather View 32 v70,2013-02-11 03:04:00,
2013-02-10 20:09:00,26.0,26.0,29.97,East,90,3.0,7.0,100,0.00,,,0.06,Weather View 32 v70,2013-02-11 03:09:00,
2013-02-10 20:14:00,26.0,26.0,29.97,East,90,1.0,7.0,100,0.00,,,0.06,Weather View 32 v70,2013-02-11 03:14:00,
2013-02-10 20:19:00,26.0,26.0,29.97,East,90,0.0,7.0,100,0.00,,,0.06,Weather View 32 v70,2013-02-11 03:19:00,
2013-02-10 20:24:00,26.0,26.0,29.98,East,90,0.0,7.0,100,0.00,,,0.06,Weather View 32 v70,2013-02-11 03:24:00,
2013-02-10 20:29:00,26.0,26.0,29.98,East,90,2.0,7.0,100,0.00,,,0.06,Weather View 32 v70,2013-02-11 03:29:00,
2013-02-10 20:34:00,26.0,26.0,29.98,East,90,3.0,7.0,100,0.00,,,0.06,Weather View 32 v70,2013-02-11 03:34:00,
2013-02-10 20:39:00,25.0,25.0,29.98,East,90,3.0,7.0,100,0.00,,,0.06,Weather View 32 v70,2013-02-11 03:39:00,
2013-02-10 20:44:00,25.0,25.0,29.98,East,90,2.0,7.0,100,0.00,,,0.06,Weather View 32 v70,2013-02-11 03:44:00,
2013-02-10 20:49:00,25.0,25.0,29.98,East,90,2.0,7.0,100,0.00,,,0.06,Weather View 32 v70,2013-02-11 03:49:00,
2013-02-10 20:54:00,25.0,25.0,29.98,East,90,4.0,6.0,100,0.00,,,0.06,Weather View 32 v70,2013-02-11 03:54:00,
2013-02-10 20:59:00,25.0,25.0,29.98,East,90,4.0,5.0,100,0.00,,,0.06,Weather View 32 v70,2013-02-11 03:59:00,
2013-02-10 21:04:00,25.0,25.0,29.98,ESE,112,3.0,6.0,100,0.00,,,0.06,Weather View 32 v70,2013-02-11 04:04:00,
2013-02-10 21:09:00,25.0,25.0,29.98,East,90,4.0,6.0,100,0.00,,,0.06,Weather View 32 v70,2013-02-11 04:09:00,
2013-02-10 21:14:00,25.0,25.0,29.99,East,90,4.0,6.0,100,0.00,,,0.06,Weather View 32 v70,2013-02-11 04:14:00,
2013-02-10 21:19:00,25.0,25.0,29.99,East,90,3.0,6.0,100,0.00,,,0.06,Weather View 32 v70,2013-02-11 04:19:00,
2013-02-10 21:24:00,25.0,25.0,29.99,East,90,4.0,6.0,100,0.00,,,0.06,Weather View 32 v70,2013-02-11 04:24:00,
2013-02-10 21:29:00,25.0,25.0,29.99,East,90,4.0,6.0,100,0.00,,,0.06,Weather View 32 v70,2013-02-11 04:29:00,
2013-02-10 21:34:00,25.0,25.0,30.00,East,90,3.0,6.0,100,0.00,,,0.06,Weather View 32 v70,2013-02-11 04:34:00,
2013-02-10 21:39:00,25.0,25.0,30.00,East,90,2.0,6.0,100,0.00,,,0.06,Weather View 32 v70,2013-02-11 04:39:00,
2013-02-10 21:44:00,26.0,26.0,29.99,SE,135,3.0,8.0,100,0.00,,,0.06,Weather View 32 v70,2013-02-11 04:44:00,
2013-02-10 21:49:00,26.0,26.0,29.99,SE,135,4.0,8.0,100,0.00,,,0.06,Weather View 32 v70,2013-02-11 04:49:00,
2013-02-10 21:54:00,26.0,26.0,30.00,SE,135,1.0,8.0,100,0.00,,,0.06,Weather View 32 v70,2013-02-11 04:54:00,
2013-02-10 21:59:00,26.0,26.0,30.00,East,90,5.0,8.0,100,0.00,,,0.06,Weather View 32 v70,2013-02-11 04:59:00,
2013-02-10 22:00:00,26.0,26.0,30.00,East,90,5.0,8.0,100,0.00,,,0.06,Weather View 32 v70,2013-02-11 05:00:00,
2013-02-10 22:05:00,26.0,26.0,29.99,East,90,2.0,8.0,100,0.00,,,0.06,Weather View 32 v70,2013-02-11 05:05:00,
2013-02-10 22:10:00,26.0,26.0,29.99,East,90,3.0,8.0,100,0.00,,,0.06,Weather View 32 v70,2013-02-11 05:10:00,
2013-02-10 22:15:00,26.0,26.0,30.00,East,90,3.0,8.0,100,0.00,,,0.06,Weather View 32 v70,2013-02-11 05:15:00,
2013-02-10 22:20:00,26.0,26.0,30.00,South,180,4.0,8.0,100,0.00,,,0.06,Weather View 32 v70,2013-02-11 05:20:00,
2013-02-10 22:25:00,26.0,26.0,30.00,SW,225,3.0,8.0,100,0.00,,,0.06,Weather View 32 v70,2013-02-11 05:25:00,
2013-02-10 22:30:00,27.0,27.0,30.00,WSW,247,7.0,9.0,100,0.00,,,0.06,Weather View 32 v70,2013-02-11 05:30:00,
2013-02-10 22:35:00,27.0,27.0,30.00,SSW,202,5.0,9.0,100,0.00,,,0.06,Weather View 32 v70,2013-02-11 05:35:00,
2013-02-10 22:40:00,26.0,26.0,30.00,WSW,247,2.0,9.0,100,0.00,,,0.06,Weather View 32 v70,2013-02-11 05:40:00,
2013-02-10 22:45:00,26.0,26.0,29.99,WSW,247,0.0,9.0,100,0.00,,,0.06,Weather View 32 v70,2013-02-11 05:45:00,
2013-02-10 22:50:00,26.0,26.0,29.99,West,270,2.0,9.0,100,0.00,,,0.06,Weather View 32 v70,2013-02-11 05:50:00,
2013-02-10 22:55:00,26.0,26.0,29.99,SW,225,4.0,9.0,100,0.00,,,0.06,Weather View 32 v70,2013-02-11 05:55:00,
2013-02-10 23:00:00,26.0,26.0,29.99,SW,225,2.0,9.0,100,0.00,,,0.06,Weather View 32 v70,2013-02-11 06:00:00,
2013-02-10 23:05:00,26.0,26.0,29.99,SW,225,3.0,9.0,100,0.00,,,0.06,Weather View 32 v70,2013-02-11 06:05:00,
2013-02-10 23:10:00,26.0,26.0,29.99,SW,225,3.0,9.0,100,0.00,,,0.06,Weather View 32 v70,2013-02-11 06:10:00,
2013-02-10 23:15:00,26.0,25.8,30.00,WSW,247,3.0,9.0,99,0.00,,,0.06,Weather View 32 v70,2013-02-11 06:15:00,
2013-02-10 23:20:00,26.0,25.8,30.00,WSW,247,3.0,9.0,99,0.00,,,0.06,Weather View 32 v70,2013-02-11 06:20:00,
2013-02-10 23:25:00,26.0,25.8,30.00,WSW,247,0.0,9.0,99,0.00,,,0.06,Weather View 32 v70,2013-02-11 06:25:00,
2013-02-10 23:30:00,26.0,25.5,30.00,WSW,247,0.0,8.0,98,0.00,,,0.06,Weather View 32 v70,2013-02-11 06:30:00,
2013-02-10 23:35:00,26.0,25.5,29.99,SSE,157,1.0,6.0,98,0.00,,,0.06,Weather View 32 v70,2013-02-11 06:35:00,
2013-02-10 23:40:00,26.0,25.5,29.99,SSE,157,1.0,6.0,98,0.00,,,0.06,Weather View 32 v70,2013-02-11 06:40:00,
2013-02-10 23:45:00,26.0,25.5,30.00,SSE,157,0.0,6.0,98,0.00,,,0.06,Weather View 32 v70,2013-02-11 06:45:00,
2013-02-10 23:50:00,26.0,25.5,30.00,SSE,157,2.0,6.0,98,0.00,,,0.06,Weather View 32 v70,2013-02-11 06:50:00,
2013-02-10 23:55:00,26.0,25.5,30.00,SSE,157,3.0,6.0,98,0.00,,,0.06,Weather View 32 v70,2013-02-11 06:55:00,